Time;durP1;ratioP1;P1;durP2;ratioP2;P2;SDS_P1;SDS_P2;PMS_P1;PMS_P2;Temp;Humidity;BMP_temperature;BMP_pressure;BME280_temperature;BME280_humidity;BME280_pressure;Samples;Min_cycle;Max_cycle;Signal;HPM_P1;HPM_P2
2022/12/04 00:02:07;;;;;;;2.80;2.22;;;;;;;;;;10460160;28;20029;-58
2022/12/04 00:07:08;;;;;;;4.47;2.47;;;;;;;;;;10464536;28;20033;-57
2022/12/04 00:12:08;;;;;;;2.90;2.60;;;;;;;;;;10455351;28;20102;-58
2022/12/04 00:17:09;;;;;;;2.47;2.25;;;;;;;;;;10413451;28;20030;-58
2022/12/04 00:22:09;;;;;;;3.70;2.40;;;;;;;;;;10437240;28;20107;-58
2022/12/04 00:27:11;;;;;;;2.85;2.40;;;;;;;;;;10438428;28;20056;-58
2022/12/04 00:32:12;;;;;;;2.95;2.20;;;;;;;;;;10455869;28;20028;-59
2022/12/04 00:37:12;;;;;;;3.38;2.40;;;;;;;;;;10460189;28;20032;-59
2022/12/04 00:42:13;;;;;;;3.35;2.20;;;;;;;;;;10470501;28;20387;-59
2022/12/04 00:47:14;;;;;;;4.50;2.17;;;;;;;;;;10458185;28;20051;-57
2022/12/04 00:52:15;;;;;;;2.95;2.20;;;;;;;;;;10467538;28;20519;-59
2022/12/04 00:57:16;;;;;;;3.35;2.15;;;;;;;;;;10482079;28;20472;-58
2022/12/04 01:02:16;;;;;;;5.72;2.47;;;;;;;;;;10463924;28;20029;-58
2022/12/04 01:07:17;;;;;;;2.63;1.98;;;;;;;;;;10440630;28;20032;-58
2022/12/04 01:12:17;;;;;;;8.18;3.58;;;;;;;;;;10472153;28;20020;-58
2022/12/04 01:17:18;;;;;;;2.60;2.00;;;;;;;;;;10473587;28;20442;-58
2022/12/04 01:22:19;;;;;;;2.95;2.10;;;;;;;;;;10476807;28;20387;-58
2022/12/04 01:27:19;;;;;;;3.47;1.70;;;;;;;;;;10450429;28;20041;-58
2022/12/04 01:32:20;;;;;;;3.00;2.28;;;;;;;;;;10442768;28;20056;-59
2022/12/04 01:37:20;;;;;;;3.80;1.98;;;;;;;;;;10439565;28;20034;-58
2022/12/04 01:42:21;;;;;;;4.85;2.08;;;;;;;;;;10443399;28;20025;-58
2022/12/04 01:47:21;;;;;;;2.10;1.90;;;;;;;;;;10419535;28;20029;-58
2022/12/04 01:52:25;;;;;;;4.82;1.90;;;;;;;;;;10450085;28;20502;-58
2022/12/04 01:57:30;;;;;;;2.20;1.80;;;;;;;;;;10446748;28;20071;-58
2022/12/04 02:02:37;;;;;;;1.83;1.63;;;;;;;;;;10450294;28;20021;-57
2022/12/04 02:07:39;;;;;;;2.50;1.60;;;;;;;;;;10436085;28;20044;-57
2022/12/04 02:12:56;;;;;;;3.17;2.10;;;;;;;;;;10432508;28;20136;-58
2022/12/04 02:18:16;;;;;;;2.03;1.88;;;;;;;;;;10420233;28;20481;-58
2022/12/04 02:23:32;;;;;;;1.92;1.60;;;;;;;;;;10432222;28;20029;-57
2022/12/04 02:29:15;;;;;;;2.15;1.60;;;;;;;;;;10445861;28;20663;-58
2022/12/04 02:34:43;;;;;;;1.92;1.83;;;;;;;;;;10430472;28;20377;-58
2022/12/04 02:39:55;;;;;;;1.63;1.52;;;;;;;;;;10447428;28;20037;-58
2022/12/04 02:45:04;;;;;;;2.28;1.92;;;;;;;;;;10432576;28;20155;-58
2022/12/04 02:50:18;;;;;;;13.00;1.85;;;;;;;;;;10431118;28;20037;-57
2022/12/04 02:55:29;;;;;;;6.72;2.22;;;;;;;;;;10435597;28;20123;-56
2022/12/04 03:00:31;;;;;;;1.95;1.73;;;;;;;;;;10427145;28;20041;-56
2022/12/04 03:05:58;;;;;;;2.90;2.05;;;;;;;;;;10446252;28;20036;-55
2022/12/04 03:11:00;;;;;;;2.50;1.70;;;;;;;;;;10432599;28;20064;-54
2022/12/04 03:16:07;;;;;;;3.83;1.95;;;;;;;;;;10420758;28;20461;-55
2022/12/04 03:21:17;;;;;;;2.00;1.67;;;;;;;;;;10431545;28;20021;-57
2022/12/04 03:26:46;;;;;;;1.70;1.60;;;;;;;;;;10422743;28;20045;-56
2022/12/04 03:32:03;;;;;;;2.15;1.80;;;;;;;;;;10402099;28;20503;-59
2022/12/04 03:37:13;;;;;;;2.22;1.75;;;;;;;;;;10407577;28;20065;-58
2022/12/04 03:42:21;;;;;;;1.70;1.60;;;;;;;;;;10459018;28;20094;-58
2022/12/04 03:47:50;;;;;;;1.80;1.58;;;;;;;;;;10488084;28;20063;-59
2022/12/04 03:53:23;;;;;;;1.98;1.60;;;;;;;;;;10454398;28;20025;-59
2022/12/04 03:58:29;;;;;;;1.60;1.50;;;;;;;;;;10465838;28;20020;-58
2022/12/04 04:03:43;;;;;;;5.07;1.60;;;;;;;;;;10472680;28;20032;-58
2022/12/04 04:08:48;;;;;;;2.58;1.70;;;;;;;;;;10437478;28;20045;-56
2022/12/04 04:24:53;;;;;;;1.48;1.38;;;;;;;;;;10472113;28;20029;-58
2022/12/04 04:29:54;;;;;;;1.50;1.40;;;;;;;;;;10449380;28;20067;-58
2022/12/04 04:35:36;;;;;;;1.60;1.50;;;;;;;;;;10470844;28;20033;-58
2022/12/04 04:40:57;;;;;;;1.52;1.42;;;;;;;;;;10462273;28;20036;-58
2022/12/04 04:46:07;;;;;;;1.30;1.20;;;;;;;;;;10469501;28;20040;-58
2022/12/04 04:51:08;;;;;;;1.60;1.50;;;;;;;;;;10458083;28;20475;-58
2022/12/04 04:56:09;;;;;;;1.52;1.40;;;;;;;;;;10453606;28;20039;-58
2022/12/04 05:01:13;;;;;;;1.80;1.70;;;;;;;;;;10470581;28;20039;-58
2022/12/04 05:06:14;;;;;;;3.72;1.50;;;;;;;;;;10459655;28;20028;-58
2022/12/04 05:11:16;;;;;;;1.67;1.50;;;;;;;;;;10484739;28;20380;-58
2022/12/04 05:16:17;;;;;;;1.73;1.63;;;;;;;;;;10479302;28;20529;-58
2022/12/04 05:21:17;;;;;;;1.80;1.60;;;;;;;;;;10473157;28;20121;-57
2022/12/04 05:26:18;;;;;;;1.50;1.40;;;;;;;;;;10429882;28;20042;-58
2022/12/04 05:31:18;;;;;;;2.10;1.45;;;;;;;;;;10489408;28;20021;-58
2022/12/04 05:36:19;;;;;;;1.70;1.50;;;;;;;;;;10441722;28;20044;-58
2022/12/04 05:41:20;;;;;;;1.75;1.40;;;;;;;;;;10490652;28;20024;-58
2022/12/04 05:46:20;;;;;;;1.40;1.30;;;;;;;;;;10452131;28;20083;-58
2022/12/04 05:51:21;;;;;;;1.50;1.38;;;;;;;;;;10480828;28;20028;-58
2022/12/04 05:56:22;;;;;;;1.60;1.35;;;;;;;;;;10483058;28;20074;-58
2022/12/04 06:01:23;;;;;;;1.50;1.40;;;;;;;;;;10465925;28;20032;-58
2022/12/04 06:06:25;;;;;;;1.73;1.52;;;;;;;;;;10468473;28;20060;-58
2022/12/04 06:11:37;;;;;;;1.55;1.45;;;;;;;;;;10456950;28;20361;-57
2022/12/04 06:16:44;;;;;;;1.63;1.52;;;;;;;;;;10472488;28;20028;-58
2022/12/04 06:21:48;;;;;;;1.85;1.45;;;;;;;;;;10475468;28;20096;-58
2022/12/04 06:26:49;;;;;;;1.50;1.40;;;;;;;;;;10465273;28;20136;-58
2022/12/04 06:31:50;;;;;;;2.65;1.40;;;;;;;;;;10476259;28;20479;-58
2022/12/04 06:36:50;;;;;;;1.50;1.40;;;;;;;;;;10456258;28;20028;-58
2022/12/04 06:41:51;;;;;;;1.77;1.30;;;;;;;;;;10477109;28;20036;-58
2022/12/04 06:46:51;;;;;;;1.70;1.35;;;;;;;;;;10441594;28;20024;-58
2022/12/04 06:51:52;;;;;;;1.70;1.25;;;;;;;;;;10476600;28;20051;-58
2022/12/04 06:56:52;;;;;;;4.43;1.40;;;;;;;;;;10454659;28;20021;-58
2022/12/04 07:01:53;;;;;;;7.25;1.50;;;;;;;;;;10463164;28;20476;-57
2022/12/04 07:06:54;;;;;;;1.40;1.30;;;;;;;;;;10447294;28;20029;-58
2022/12/04 07:11:54;;;;;;;1.42;1.30;;;;;;;;;;10462272;28;20047;-57
2022/12/04 07:16:55;;;;;;;1.30;1.20;;;;;;;;;;10442396;28;20543;-57
2022/12/04 07:21:55;;;;;;;1.15;1.15;;;;;;;;;;10455404;28;20484;-56
2022/12/04 07:26:56;;;;;;;2.40;1.23;;;;;;;;;;10471158;28;20076;-57
2022/12/04 07:31:56;;;;;;;1.40;1.30;;;;;;;;;;10465722;28;20031;-54
2022/12/04 07:36:57;;;;;;;1.20;1.10;;;;;;;;;;10478084;28;20055;-57
2022/12/04 07:41:58;;;;;;;6.55;1.20;;;;;;;;;;10460936;28;20079;-57
2022/12/04 07:46:58;;;;;;;1.00;1.00;;;;;;;;;;10422694;28;20421;-58
2022/12/04 07:51:59;;;;;;;2.22;1.23;;;;;;;;;;10469867;28;20029;-57
2022/12/04 07:56:59;;;;;;;1.20;1.10;;;;;;;;;;10454120;28;20030;-58
2022/12/04 08:02:00;;;;;;;1.20;1.10;;;;;;;;;;10474220;28;20117;-56
2022/12/04 08:07:00;;;;;;;1.75;1.20;;;;;;;;;;10478744;28;20042;-53
2022/12/04 08:12:01;;;;;;;1.25;1.10;;;;;;;;;;10457186;28;20044;-54
2022/12/04 08:17:01;;;;;;;1.98;1.13;;;;;;;;;;10447506;28;20028;-56
2022/12/04 08:22:02;;;;;;;1.20;1.20;;;;;;;;;;10463786;28;20107;-57
2022/12/04 08:27:11;;;;;;;1.20;1.00;;;;;;;;;;10459071;28;20507;-49
2022/12/04 08:32:12;;;;;;;3.42;1.27;;;;;;;;;;10456978;28;20033;-54
2022/12/04 08:37:12;;;;;;;2.45;1.35;;;;;;;;;;10477653;28;20090;-55
2022/12/04 08:42:13;;;;;;;6.63;1.58;;;;;;;;;;10440377;28;20431;-56
2022/12/04 08:47:14;;;;;;;7.68;1.10;;;;;;;;;;10456045;28;20366;-57
2022/12/04 08:52:14;;;;;;;2.63;1.40;;;;;;;;;;10458522;28;20445;-57
2022/12/04 08:57:15;;;;;;;3.45;1.33;;;;;;;;;;10477243;28;20086;-55
2022/12/04 09:02:16;;;;;;;1.20;1.10;;;;;;;;;;10451935;28;20047;-57
2022/12/04 09:07:16;;;;;;;1.73;1.60;;;;;;;;;;10441846;28;20063;-55
2022/12/04 09:12:17;;;;;;;2.38;1.20;;;;;;;;;;10443245;28;20032;-54
2022/12/04 09:17:18;;;;;;;4.38;1.50;;;;;;;;;;10446667;28;20037;-54
2022/12/04 09:22:19;;;;;;;2.65;1.17;;;;;;;;;;10454472;28;20090;-54
2022/12/04 09:27:19;;;;;;;2.97;1.60;;;;;;;;;;10454047;28;20053;-51
2022/12/04 09:32:20;;;;;;;4.70;1.50;;;;;;;;;;10455264;28;20037;-55
2022/12/04 09:37:20;;;;;;;5.57;1.38;;;;;;;;;;10455195;28;20044;-54
2022/12/04 09:42:29;;;;;;;2.42;1.40;;;;;;;;;;10459793;28;20037;-53
2022/12/04 09:47:41;;;;;;;4.68;1.30;;;;;;;;;;10456472;28;20519;-51
2022/12/04 09:53:02;;;;;;;2.28;1.50;;;;;;;;;;10437800;28;20024;-53
2022/12/04 09:58:09;;;;;;;1.45;1.20;;;;;;;;;;10433396;28;20041;-54
2022/12/04 10:03:19;;;;;;;3.60;1.50;;;;;;;;;;10442176;28;20033;-57
2022/12/04 10:08:36;;;;;;;3.10;1.83;;;;;;;;;;10449763;28;20029;-56
2022/12/04 10:14:10;;;;;;;7.45;2.05;;;;;;;;;;10424306;28;20059;-56
2022/12/04 10:19:47;;;;;;;1.95;1.70;;;;;;;;;;10429123;28;20024;-56
2022/12/04 10:25:07;;;;;;;4.78;1.88;;;;;;;;;;10438892;28;20036;-57
2022/12/04 10:30:31;;;;;;;6.25;2.10;;;;;;;;;;10422843;28;20442;-55
2022/12/04 10:35:34;;;;;;;15.77;2.30;;;;;;;;;;10448491;28;20033;-53
2022/12/04 10:40:49;;;;;;;9.90;2.00;;;;;;;;;;10435821;28;20384;-56
2022/12/04 10:45:51;;;;;;;3.80;1.80;;;;;;;;;;10428025;28;20358;-57
2022/12/04 10:50:51;;;;;;;2.85;2.00;;;;;;;;;;10446662;28;20063;-55
2022/12/04 10:55:52;;;;;;;6.90;1.98;;;;;;;;;;10446060;28;20040;-55
2022/12/04 11:01:13;;;;;;;3.92;1.92;;;;;;;;;;10441093;28;20456;-56
2022/12/04 11:06:14;;;;;;;6.78;2.85;;;;;;;;;;10424032;28;20032;-55
2022/12/04 11:11:21;;;;;;;2.47;1.77;;;;;;;;;;10439250;28;20022;-57
2022/12/04 11:16:39;;;;;;;10.27;2.35;;;;;;;;;;10439788;28;20032;-55
2022/12/04 11:21:39;;;;;;;2.33;1.60;;;;;;;;;;10440489;28;20032;-55
2022/12/04 11:26:41;;;;;;;4.03;1.80;;;;;;;;;;10425263;28;20048;-55
2022/12/04 11:31:51;;;;;;;4.05;1.65;;;;;;;;;;10436189;28;20119;-54
2022/12/04 11:36:56;;;;;;;3.92;2.13;;;;;;;;;;10447412;28;20051;-56
2022/12/04 11:42:18;;;;;;;3.80;1.63;;;;;;;;;;10449917;28;20104;-56
2022/12/04 11:47:22;;;;;;;3.75;1.60;;;;;;;;;;10456319;28;20035;-55
2022/12/04 11:52:49;;;;;;;2.35;1.80;;;;;;;;;;10442950;28;20036;-54
2022/12/04 11:58:33;;;;;;;3.20;1.80;;;;;;;;;;10451526;28;20074;-55
2022/12/04 12:04:24;;;;;;;3.13;2.08;;;;;;;;;;10411303;28;20040;-55
2022/12/04 12:09:33;;;;;;;4.25;1.98;;;;;;;;;;10460378;28;20033;-55
2022/12/04 12:14:52;;;;;;;5.03;1.90;;;;;;;;;;10446394;28;20033;-55
2022/12/04 12:20:17;;;;;;;6.32;1.95;;;;;;;;;;10452759;28;20024;-55
2022/12/04 12:25:45;;;;;;;7.93;2.40;;;;;;;;;;10451945;28;20033;-56
2022/12/04 12:31:20;;;;;;;5.17;2.30;;;;;;;;;;10435389;28;20069;-55
2022/12/04 12:36:25;;;;;;;4.47;1.70;;;;;;;;;;10428372;28;20037;-56
2022/12/04 12:41:33;;;;;;;11.90;2.30;;;;;;;;;;10451973;28;20440;-54
2022/12/04 12:46:40;;;;;;;6.20;2.07;;;;;;;;;;10453990;28;20025;-55
2022/12/04 12:51:55;;;;;;;7.68;2.30;;;;;;;;;;10434920;28;20029;-54
2022/12/04 12:57:05;;;;;;;6.00;2.30;;;;;;;;;;10451327;28;20032;-56
2022/12/04 13:02:27;;;;;;;3.65;2.58;;;;;;;;;;10447606;28;20057;-56
2022/12/04 13:07:51;;;;;;;3.20;1.98;;;;;;;;;;10451123;28;20029;-57
2022/12/04 13:13:07;;;;;;;3.60;2.00;;;;;;;;;;10444474;28;20295;-55
2022/12/04 13:18:19;;;;;;;4.97;2.15;;;;;;;;;;10435102;28;20033;-57
2022/12/04 13:24:07;;;;;;;3.35;2.08;;;;;;;;;;10431588;28;20075;-55
2022/12/04 13:29:40;;;;;;;2.75;1.98;;;;;;;;;;10443081;28;20059;-56
2022/12/04 13:35:23;;;;;;;4.30;2.20;;;;;;;;;;10450697;28;20112;-57
2022/12/04 13:40:31;;;;;;;4.47;1.92;;;;;;;;;;10437864;28;20052;-57
2022/12/04 13:45:33;;;;;;;3.70;2.40;;;;;;;;;;10437244;28;20033;-57
2022/12/04 13:50:36;;;;;;;6.57;2.30;;;;;;;;;;10435450;28;20480;-56
2022/12/04 13:55:39;;;;;;;3.35;2.08;;;;;;;;;;10444936;28;20060;-57
2022/12/04 14:00:42;;;;;;;16.50;2.63;;;;;;;;;;10402505;28;20389;-55
2022/12/04 14:05:43;;;;;;;11.63;2.42;;;;;;;;;;10439425;28;20057;-57
2022/12/04 14:11:25;;;;;;;7.55;2.78;;;;;;;;;;10418654;28;20108;-56
2022/12/04 14:16:34;;;;;;;5.78;2.75;;;;;;;;;;10444091;28;20087;-55
2022/12/04 14:21:43;;;;;;;9.85;2.58;;;;;;;;;;10437216;28;20541;-54
2022/12/04 14:26:49;;;;;;;6.72;2.75;;;;;;;;;;10396788;28;1245622;-54
2022/12/04 14:31:52;;;;;;;14.70;3.30;;;;;;;;;;10441066;28;20039;-55
2022/12/04 14:36:55;;;;;;;11.70;3.70;;;;;;;;;;10449061;28;20339;-55
2022/12/04 14:42:13;;;;;;;13.30;4.38;;;;;;;;;;10435551;28;20071;-52
2022/12/04 14:48:04;;;;;;;20.33;4.07;;;;;;;;;;10439375;28;20032;-54
2022/12/04 14:53:29;;;;;;;10.57;3.97;;;;;;;;;;10396961;28;20404;-54
2022/12/04 14:58:33;;;;;;;9.88;4.18;;;;;;;;;;10440683;28;20028;-56
2022/12/04 15:03:41;;;;;;;11.43;4.78;;;;;;;;;;10438335;28;20027;-56
2022/12/04 15:12:32;;;;;;;15.50;4.53;;;;;;;;;;10447763;28;20072;-55
2022/12/04 15:14:15;;;;;;;9.27;4.18;;;;;;;;;;10430859;28;20041;-55
2022/12/04 15:19:17;;;;;;;11.02;4.88;;;;;;;;;;10437268;28;20040;-55
2022/12/04 15:24:19;;;;;;;21.92;5.43;;;;;;;;;;10449914;28;20035;-54
2022/12/04 15:29:24;;;;;;;8.30;3.85;;;;;;;;;;10451116;23;20053;-61
2022/12/04 15:34:40;;;;;;;15.48;4.68;;;;;;;;;;10440140;28;20060;-58
2022/12/04 15:39:41;;;;;;;13.38;4.40;;;;;;;;;;10447160;28;20036;-61
2022/12/04 15:45:21;;;;;;;12.70;4.10;;;;;;;;;;10445376;28;20161;-58
2022/12/04 15:50:28;;;;;;;10.27;4.03;;;;;;;;;;10444171;28;20526;-62
2022/12/04 15:55:32;;;;;;;13.80;4.43;;;;;;;;;;10445137;28;20476;-60
2022/12/04 16:00:39;;;;;;;15.07;4.93;;;;;;;;;;10428207;28;20372;-62
2022/12/04 16:05:40;;;;;;;12.63;4.68;;;;;;;;;;10446900;28;20401;-59
2022/12/04 16:10:40;;;;;;;10.00;4.15;;;;;;;;;;10441989;28;20032;-60
2022/12/04 16:15:42;;;;;;;13.88;4.05;;;;;;;;;;10445475;28;20044;-60
2022/12/04 16:20:43;;;;;;;12.43;4.75;;;;;;;;;;10442192;28;20087;-59
2022/12/04 16:25:43;;;;;;;8.10;4.65;;;;;;;;;;10445300;28;20103;-59
2022/12/04 16:30:44;;;;;;;13.40;4.20;;;;;;;;;;10448324;28;20033;-58
2022/12/04 16:35:44;;;;;;;8.30;4.30;;;;;;;;;;10450451;28;20415;-61
2022/12/04 16:40:47;;;;;;;12.10;4.40;;;;;;;;;;10436250;28;20056;-62
2022/12/04 16:45:51;;;;;;;9.75;4.20;;;;;;;;;;10450046;28;20036;-58
2022/12/04 16:50:52;;;;;;;13.85;4.43;;;;;;;;;;10438303;28;20531;-59
2022/12/04 16:55:53;;;;;;;8.70;3.85;;;;;;;;;;10432220;28;20021;-59
2022/12/04 17:00:55;;;;;;;11.05;3.95;;;;;;;;;;10450785;28;20048;-58
2022/12/04 17:05:57;;;;;;;12.27;4.15;;;;;;;;;;10451907;28;20524;-58
2022/12/04 17:10:57;;;;;;;11.13;4.20;;;;;;;;;;10444308;28;20048;-58
2022/12/04 17:15:58;;;;;;;10.25;4.25;;;;;;;;;;10442623;28;20029;-59
2022/12/04 17:20:58;;;;;;;11.13;4.47;;;;;;;;;;10436984;28;20079;-58
2022/12/04 17:26:09;;;;;;;9.25;4.63;;;;;;;;;;10444205;28;20043;-58
2022/12/04 17:31:19;;;;;;;19.85;4.97;;;;;;;;;;10440225;28;20025;-57
2022/12/04 17:36:24;;;;;;;14.75;5.07;;;;;;;;;;10445715;28;20021;-57
2022/12/04 17:41:25;;;;;;;10.32;4.32;;;;;;;;;;10447977;28;20106;-58
2022/12/04 17:46:25;;;;;;;14.05;4.35;;;;;;;;;;10449682;28;20098;-59
2022/12/04 17:51:27;;;;;;;13.55;4.65;;;;;;;;;;10450461;28;20021;-61
2022/12/04 17:56:28;;;;;;;19.48;4.90;;;;;;;;;;10447418;28;20214;-61
2022/12/04 18:01:29;;;;;;;12.88;4.45;;;;;;;;;;10447543;28;20242;-62
2022/12/04 18:06:36;;;;;;;17.27;4.65;;;;;;;;;;10449131;28;20489;-62
2022/12/04 18:11:39;;;;;;;33.58;4.93;;;;;;;;;;10441282;28;20052;-60
2022/12/04 18:16:46;;;;;;;13.80;4.65;;;;;;;;;;10444845;28;20056;-59
2022/12/04 18:21:47;;;;;;;16.17;5.03;;;;;;;;;;10437041;28;20036;-59
2022/12/04 18:26:49;;;;;;;14.15;5.25;;;;;;;;;;10430413;28;20382;-59
2022/12/04 18:31:50;;;;;;;19.15;4.90;;;;;;;;;;10448077;28;20384;-60
2022/12/04 18:36:50;;;;;;;34.72;5.55;;;;;;;;;;10445003;28;20024;-56
2022/12/04 18:41:55;;;;;;;17.77;4.70;;;;;;;;;;10445121;28;20021;-60
2022/12/04 18:46:55;;;;;;;14.27;4.57;;;;;;;;;;10441353;28;20476;-59
2022/12/04 18:52:04;;;;;;;15.52;5.03;;;;;;;;;;10442875;28;20032;-59
2022/12/04 18:57:08;;;;;;;22.17;5.03;;;;;;;;;;10437167;28;20083;-58
2022/12/04 19:02:09;;;;;;;13.73;4.40;;;;;;;;;;10430163;28;20048;-59
2022/12/04 19:07:10;;;;;;;11.45;5.32;;;;;;;;;;10439841;28;20047;-59
2022/12/04 19:12:17;;;;;;;8.82;4.05;;;;;;;;;;10443260;28;20033;-59
2022/12/04 19:17:19;;;;;;;15.52;4.22;;;;;;;;;;10444340;28;20049;-60
2022/12/04 19:22:20;;;;;;;26.92;5.07;;;;;;;;;;10444916;28;20036;-57
2022/12/04 19:27:20;;;;;;;19.73;6.40;;;;;;;;;;10437790;28;20041;-62
2022/12/04 19:32:21;;;;;;;22.20;4.28;;;;;;;;;;10440556;28;20090;-58
2022/12/04 19:37:22;;;;;;;13.88;4.85;;;;;;;;;;10439280;28;20051;-57
2022/12/04 19:42:22;;;;;;;13.18;4.25;;;;;;;;;;10441968;28;20104;-58
2022/12/04 19:47:23;;;;;;;11.10;4.40;;;;;;;;;;10443827;28;20481;-58
2022/12/04 19:52:24;;;;;;;19.25;4.32;;;;;;;;;;10443019;28;20391;-61
2022/12/04 19:57:24;;;;;;;14.15;4.50;;;;;;;;;;10444417;28;20021;-61
2022/12/04 20:02:25;;;;;;;16.42;4.93;;;;;;;;;;10451385;28;20040;-57
2022/12/04 20:07:25;;;;;;;13.57;4.30;;;;;;;;;;10454009;28;20032;-61
2022/12/04 20:12:26;;;;;;;14.13;4.10;;;;;;;;;;10448048;28;20033;-61
2022/12/04 20:17:27;;;;;;;18.55;4.50;;;;;;;;;;10444925;28;20059;-61
2022/12/04 20:22:28;;;;;;;11.57;4.25;;;;;;;;;;10447209;28;20472;-61
2022/12/04 20:27:29;;;;;;;14.82;3.70;;;;;;;;;;10443783;28;20073;-62
2022/12/04 20:32:29;;;;;;;13.63;3.70;;;;;;;;;;10445681;28;20041;-61
2022/12/04 20:37:30;;;;;;;11.25;4.03;;;;;;;;;;10448133;28;20527;-61
2022/12/04 20:42:31;;;;;;;15.30;3.88;;;;;;;;;;10445946;28;20495;-61
2022/12/04 20:47:33;;;;;;;14.57;3.70;;;;;;;;;;10442095;28;20499;-62
2022/12/04 20:52:34;;;;;;;12.35;3.40;;;;;;;;;;10444735;28;20035;-61
2022/12/04 20:57:36;;;;;;;8.10;3.75;;;;;;;;;;10444224;28;20039;-59
2022/12/04 21:02:36;;;;;;;12.98;3.72;;;;;;;;;;10442528;28;20277;-60
2022/12/04 21:07:37;;;;;;;12.40;3.53;;;;;;;;;;10439205;28;20457;-61
2022/12/04 21:18:00;;;;;;;13.73;3.67;;;;;;;;;;10448574;28;20032;-62
2022/12/04 21:23:01;;;;;;;8.77;3.55;;;;;;;;;;10444297;28;20032;-63
2022/12/04 21:28:01;;;;;;;9.80;4.03;;;;;;;;;;10442985;28;20420;-62
2022/12/04 21:33:02;;;;;;;11.80;3.63;;;;;;;;;;10442498;28;20044;-62
2022/12/04 21:38:02;;;;;;;9.95;3.50;;;;;;;;;;10439853;28;20033;-62
2022/12/04 21:43:03;;;;;;;9.38;3.20;;;;;;;;;;10443356;28;20033;-59
2022/12/04 21:48:04;;;;;;;11.70;3.63;;;;;;;;;;10439387;28;20287;-59
2022/12/04 21:53:04;;;;;;;9.75;3.20;;;;;;;;;;10443119;28;20028;-60
2022/12/04 21:58:05;;;;;;;10.07;3.47;;;;;;;;;;10443663;28;20118;-61
2022/12/04 22:03:05;;;;;;;5.07;2.92;;;;;;;;;;10439887;28;20033;-58
2022/12/04 22:08:08;;;;;;;4.47;2.55;;;;;;;;;;10443965;28;20028;-59
2022/12/04 22:13:10;;;;;;;5.15;3.22;;;;;;;;;;10441972;28;20520;-59
2022/12/04 22:18:11;;;;;;;6.22;2.80;;;;;;;;;;10441930;28;20024;-58
2022/12/04 22:23:12;;;;;;;5.18;3.47;;;;;;;;;;10438619;28;20112;-58
2022/12/04 22:28:12;;;;;;;6.28;2.65;;;;;;;;;;10440732;28;20040;-57
2022/12/04 22:33:13;;;;;;;10.95;3.30;;;;;;;;;;10433559;28;20393;-58
2022/12/04 22:38:14;;;;;;;6.30;2.80;;;;;;;;;;10432132;28;20440;-58
2022/12/04 22:43:14;;;;;;;5.20;2.55;;;;;;;;;;10433258;28;20370;-58
2022/12/04 22:48:15;;;;;;;5.53;2.95;;;;;;;;;;10442449;28;20032;-58
2022/12/04 22:53:15;;;;;;;5.65;3.00;;;;;;;;;;10444911;28;20035;-60
2022/12/04 22:58:16;;;;;;;9.45;2.60;;;;;;;;;;10425844;28;20033;-59
2022/12/04 23:03:16;;;;;;;9.93;3.05;;;;;;;;;;10442774;28;20079;-59
2022/12/04 23:08:20;;;;;;;6.90;2.80;;;;;;;;;;10438036;28;20441;-60
2022/12/04 23:13:21;;;;;;;4.88;2.55;;;;;;;;;;10450017;28;20025;-59
2022/12/04 23:18:21;;;;;;;7.82;3.10;;;;;;;;;;10429816;28;20035;-62
2022/12/04 23:23:23;;;;;;;10.82;3.35;;;;;;;;;;10439404;28;20035;-62
2022/12/04 23:28:24;;;;;;;4.78;2.65;;;;;;;;;;10440355;28;20080;-61
2022/12/04 23:33:25;;;;;;;5.95;2.85;;;;;;;;;;10444660;28;20115;-63
2022/12/04 23:38:28;;;;;;;5.60;2.58;;;;;;;;;;10441522;28;20036;-62
2022/12/04 23:43:28;;;;;;;8.18;2.65;;;;;;;;;;10440187;28;20031;-62
2022/12/04 23:48:29;;;;;;;8.57;2.65;;;;;;;;;;10442757;28;20027;-62
2022/12/04 23:53:30;;;;;;;5.32;2.55;;;;;;;;;;10451318;28;20029;-63
2022/12/04 23:58:32;;;;;;;8.88;2.78;;;;;;;;;;10438983;28;20025;-61
